createdAt,value
2023-02-03T00:03:41.053Z,41.00
2023-02-03T00:08:43.678Z,41.83
2023-02-03T00:13:46.132Z,46.30
2023-02-03T00:18:48.645Z,39.10
2023-02-03T00:23:51.191Z,39.42
2023-02-03T00:28:53.695Z,37.13
2023-02-03T00:33:57.457Z,37.95
2023-02-03T00:39:01.424Z,38.17
2023-02-03T00:44:04.280Z,41.45
2023-02-03T00:49:07.437Z,38.47
2023-02-03T00:54:11.366Z,38.38
2023-02-03T00:59:13.904Z,42.90
2023-02-03T01:04:16.333Z,44.15
2023-02-03T01:09:18.794Z,43.53
2023-02-03T01:14:21.206Z,44.75
2023-02-03T01:19:24.047Z,42.20
2023-02-03T01:24:26.515Z,44.20
2023-02-03T01:29:28.926Z,44.88
2023-02-03T01:34:31.320Z,36.17
2023-02-03T01:39:34.804Z,36.03
2023-02-03T01:44:48.017Z,41.55
2023-02-03T01:49:56.703Z,36.60
2023-02-03T01:55:02.907Z,38.00
2023-02-03T02:00:08.304Z,31.52
2023-02-03T02:05:25.996Z,44.47
2023-02-03T02:10:30.663Z,35.42
2023-02-03T02:15:55.429Z,31.67
2023-02-03T02:21:32.832Z,33.33
2023-02-03T02:27:12.360Z,30.88
2023-02-03T02:32:36.123Z,24.02
2023-02-03T02:37:51.389Z,26.17
2023-02-03T02:43:11.295Z,29.60
2023-02-03T02:48:20.644Z,22.30
2023-02-03T02:53:27.489Z,28.80
2023-02-03T02:58:32.446Z,29.80
2023-02-03T03:03:35.198Z,25.45
2023-02-03T03:09:01.655Z,24.25
2023-02-03T03:14:06.907Z,21.48
2023-02-03T03:19:13.127Z,25.17
2023-02-03T03:24:22.851Z,28.75
2023-02-03T03:29:31.578Z,25.63
2023-02-03T03:34:34.721Z,25.60
2023-02-03T03:39:54.387Z,28.02
2023-02-03T03:45:15.521Z,20.67
2023-02-03T03:50:27.027Z,22.98
2023-02-03T03:55:33.622Z,19.88
2023-02-03T04:00:39.862Z,21.42
2023-02-03T04:05:42.962Z,27.83
2023-02-03T04:10:45.749Z,22.10
2023-02-03T04:15:48.362Z,24.02
2023-02-03T04:20:51.246Z,27.38
2023-02-03T04:25:53.907Z,26.05
2023-02-03T04:30:56.313Z,24.35
2023-02-03T04:35:58.765Z,25.75
2023-02-03T04:41:01.176Z,22.23
2023-02-03T04:46:05.476Z,23.33
2023-02-03T04:51:09.381Z,22.05
2023-02-03T04:56:12.013Z,24.27
2023-02-03T05:01:14.598Z,23.00
2023-02-03T05:06:17.187Z,19.73
2023-02-03T05:11:19.825Z,21.23
2023-02-03T05:16:22.523Z,19.13
2023-02-03T05:21:25.094Z,19.95
2023-02-03T05:26:27.592Z,20.90
2023-02-03T05:31:30.080Z,22.50
2023-02-03T05:36:32.846Z,22.00
2023-02-03T05:41:54.116Z,24.60
2023-02-03T05:46:59.348Z,25.25
2023-02-03T05:52:01.886Z,28.92
2023-02-03T05:57:04.395Z,26.27
2023-02-03T06:02:06.978Z,31.40
2023-02-03T06:07:09.497Z,27.48
2023-02-03T06:12:12.019Z,26.40
2023-02-03T06:17:14.508Z,19.60
2023-02-03T06:22:16.883Z,25.08
2023-02-03T06:27:19.507Z,26.05
2023-02-03T06:32:22.124Z,23.35
2023-02-03T06:37:24.956Z,22.30
2023-02-03T06:42:27.897Z,27.55
2023-02-03T06:47:30.543Z,20.17
2023-02-03T06:52:33.078Z,23.00
2023-02-03T06:57:35.674Z,23.73
2023-02-03T07:02:38.226Z,25.08
2023-02-03T07:07:40.858Z,21.95
2023-02-03T07:12:44.998Z,17.63
2023-02-03T07:17:54.861Z,17.88
2023-02-03T07:22:58.730Z,28.23
2023-02-03T07:28:01.849Z,30.45
2023-02-03T07:33:04.714Z,24.63
2023-02-03T07:38:07.278Z,27.90
2023-02-03T07:43:09.788Z,25.02
2023-02-03T07:48:13.254Z,25.55
2023-02-03T07:53:16.059Z,22.48
2023-02-03T07:58:18.586Z,22.85
2023-02-03T08:03:21.117Z,27.10
2023-02-03T08:08:23.623Z,28.23
2023-02-03T08:13:26.183Z,29.38
2023-02-03T08:18:30.942Z,39.83
2023-02-03T08:23:34.790Z,25.63
2023-02-03T08:28:37.383Z,21.15
2023-02-03T08:33:40.062Z,22.35
2023-02-03T08:38:42.639Z,19.67
2023-02-03T08:43:45.887Z,25.90
2023-02-03T08:48:48.361Z,22.02
2023-02-03T08:53:50.915Z,21.23
2023-02-03T08:58:55.918Z,17.73
2023-02-03T09:03:58.497Z,21.33
2023-02-03T09:09:01.156Z,20.48
2023-02-03T09:14:07.458Z,20.90
2023-02-03T09:19:10.223Z,19.95
2023-02-03T09:24:12.639Z,20.80
2023-02-03T09:29:15.218Z,20.40
2023-02-03T09:34:17.935Z,23.30
2023-02-03T09:39:20.453Z,18.88
2023-02-03T09:44:43.099Z,24.75
2023-02-03T09:50:01.965Z,29.35
2023-02-03T09:55:20.821Z,34.22
2023-02-03T10:00:31.150Z,26.98
2023-02-03T10:05:33.538Z,30.10
2023-02-03T10:11:12.751Z,28.90
2023-02-03T10:16:30.304Z,24.70
2023-02-03T10:21:47.475Z,21.23
2023-02-03T10:26:51.370Z,19.30
2023-02-03T10:31:58.886Z,17.67
2023-02-03T10:37:23.213Z,13.23
2023-02-03T10:42:25.972Z,13.07
2023-02-03T10:47:44.011Z,12.88
2023-02-03T10:52:47.125Z,12.63
2023-02-03T10:57:50.327Z,13.27
2023-02-03T11:03:42.137Z,11.93
2023-02-03T11:08:47.894Z,8.75
2023-02-03T11:14:02.546Z,12.82
2023-02-03T11:19:22.600Z,11.00
2023-02-03T11:24:25.031Z,11.45
2023-02-03T11:29:30.951Z,12.50
2023-02-03T11:34:34.853Z,12.25
2023-02-03T11:39:37.345Z,12.20
2023-02-03T11:44:39.734Z,11.32
2023-02-03T11:49:59.740Z,14.77
2023-02-03T11:55:21.254Z,11.05
2023-02-03T12:00:37.533Z,10.48
2023-02-03T12:06:02.747Z,8.65
2023-02-03T12:11:28.664Z,11.32
2023-02-03T12:16:43.257Z,9.82
2023-02-03T12:21:50.424Z,11.82
2023-02-03T12:27:07.251Z,15.50
2023-02-03T12:32:30.896Z,13.45
2023-02-03T12:37:51.593Z,12.13
2023-02-03T12:43:22.248Z,11.82
2023-02-03T12:48:39.610Z,14.45
2023-02-03T12:53:48.569Z,14.15
2023-02-03T12:58:57.790Z,10.90
2023-02-03T13:04:12.156Z,11.88
2023-02-03T13:09:29.411Z,12.73
2023-02-03T13:15:13.101Z,11.55
2023-02-03T13:20:21.779Z,14.40
2023-02-03T13:25:42.089Z,15.02
2023-02-03T13:31:24.050Z,12.82
2023-02-03T13:37:03.840Z,12.55
2023-02-03T13:42:24.515Z,13.75
2023-02-03T13:47:30.199Z,16.83
2023-02-03T13:52:47.840Z,12.25
2023-02-03T13:57:53.120Z,15.35
2023-02-03T14:02:56.925Z,12.77
2023-02-03T14:08:30.723Z,13.50
2023-02-03T14:13:33.127Z,16.92
2023-02-03T14:18:45.463Z,14.40
2023-02-03T14:23:57.777Z,14.85
2023-02-03T14:29:01.143Z,14.85
2023-02-03T14:34:14.784Z,14.75
2023-02-03T14:39:22.834Z,18.48
2023-02-03T14:44:55.076Z,15.93
2023-02-03T14:50:06.332Z,12.52
2023-02-03T14:55:40.993Z,15.95
2023-02-03T15:00:43.531Z,15.68
2023-02-03T15:05:48.359Z,18.10
2023-02-03T15:10:50.852Z,11.35
2023-02-03T15:15:56.071Z,12.50
2023-02-03T15:20:59.155Z,13.75
2023-02-03T15:26:04.134Z,15.20
2023-02-03T15:31:28.177Z,15.20
2023-02-03T15:36:52.499Z,16.17
2023-02-03T15:41:57.307Z,15.43
2023-02-03T15:47:03.148Z,13.65
2023-02-03T15:52:10.741Z,13.75
2023-02-03T15:57:19.058Z,16.20
2023-02-03T16:02:47.548Z,15.63
2023-02-03T16:07:50.022Z,17.33
2023-02-03T16:12:52.455Z,16.67
2023-02-03T16:17:58.238Z,16.27
2023-02-03T16:23:05.379Z,12.88
2023-02-03T16:28:32.035Z,16.35
2023-02-03T16:33:53.416Z,14.07
2023-02-03T16:39:14.676Z,14.85
2023-02-03T16:44:38.001Z,16.00
2023-02-03T16:49:59.237Z,16.75
2023-02-03T16:55:01.764Z,17.45
2023-02-03T17:00:06.451Z,14.02
2023-02-03T17:05:08.923Z,13.48
2023-02-03T17:10:12.065Z,15.93
2023-02-03T17:15:16.020Z,17.80
2023-02-03T17:20:18.711Z,15.07
2023-02-03T17:25:23.209Z,13.65
2023-02-03T17:30:26.763Z,15.27
2023-02-03T17:35:40.155Z,16.45
2023-02-03T17:56:54.571Z,15.90
2023-02-03T18:01:59.809Z,15.98
2023-02-03T18:07:04.968Z,14.95
2023-02-03T18:12:13.613Z,13.57
2023-02-03T18:22:18.293Z,9.23
2023-02-03T18:27:25.817Z,9.95
2023-02-03T18:32:30.558Z,12.20
2023-02-03T18:37:33.056Z,11.82
2023-02-03T18:42:38.469Z,10.57
2023-02-03T18:47:43.684Z,9.90
2023-02-03T18:52:54.149Z,12.15
2023-02-03T18:57:59.698Z,11.75
2023-02-03T19:03:02.197Z,10.25
2023-02-03T19:08:04.671Z,10.60
2023-02-03T19:13:10.241Z,11.55
2023-02-03T19:18:12.797Z,11.68
2023-02-03T19:23:18.094Z,9.88
2023-02-03T19:28:30.465Z,11.35
2023-02-03T19:33:37.140Z,12.00
2023-02-03T19:38:39.762Z,9.63
2023-02-03T19:43:42.246Z,12.30
2023-02-03T19:48:47.080Z,14.57
2023-02-03T19:53:54.776Z,13.80
2023-02-03T19:58:57.246Z,17.80
2023-02-03T20:04:00.257Z,11.95
2023-02-03T20:09:04.441Z,10.10
2023-02-03T20:14:06.986Z,11.68
2023-02-03T20:19:09.426Z,11.70
2023-02-03T20:24:12.132Z,10.90
2023-02-03T20:29:14.656Z,13.10
2023-02-03T20:34:17.170Z,11.45
2023-02-03T20:39:20.995Z,14.60
2023-02-03T20:44:23.538Z,11.68
2023-02-03T20:49:26.224Z,14.70
2023-02-03T20:54:28.682Z,11.38
2023-02-03T20:59:32.051Z,11.30
2023-02-03T21:04:53.196Z,12.13
2023-02-03T21:09:57.774Z,8.32
2023-02-03T21:15:00.298Z,11.98
2023-02-03T21:20:02.688Z,12.57
2023-02-03T21:25:07.406Z,11.25
2023-02-03T21:30:35.497Z,13.13
2023-02-03T21:35:38.618Z,14.23
2023-02-03T21:40:41.278Z,12.60
2023-02-03T21:45:44.678Z,11.23
2023-02-03T21:50:47.225Z,8.60
2023-02-03T21:55:49.796Z,11.02
2023-02-03T22:00:57.529Z,12.95
2023-02-03T22:06:09.240Z,13.75
2023-02-03T22:11:12.000Z,13.70
2023-02-03T22:16:17.464Z,13.00
2023-02-03T22:21:20.071Z,11.10
2023-02-03T22:26:22.881Z,13.43
2023-02-03T22:31:25.360Z,7.95
2023-02-03T22:36:27.964Z,11.15
2023-02-03T22:41:30.463Z,11.88
2023-02-03T22:46:32.937Z,15.35
2023-02-03T22:51:35.346Z,16.92
2023-02-03T22:56:37.814Z,10.98
2023-02-03T23:01:40.245Z,11.18
2023-02-03T23:06:42.659Z,11.23
2023-02-03T23:11:45.294Z,15.02
2023-02-03T23:16:47.757Z,12.43
2023-02-03T23:21:50.352Z,12.05
2023-02-03T23:26:52.853Z,11.65
2023-02-03T23:31:55.329Z,11.45
2023-02-03T23:37:00.046Z,13.57
2023-02-03T23:42:02.484Z,11.13
2023-02-03T23:47:05.020Z,10.73
2023-02-03T23:52:07.497Z,11.98
2023-02-03T23:57:10.044Z,13.35
